Time;durP1;ratioP1;P1;durP2;ratioP2;P2;SDS_P1;SDS_P2;PMS_P1;PMS_P2;Temp;Humidity;BMP_temperature;BMP_pressure;BME280_temperature;BME280_humidity;BME280_pressure;Samples;Min_cycle;Max_cycle;Signal;HPM_P1;HPM_P2
2022/03/19 00:02:22;;;;;;;14.98;4.22;;;8.10;99.90;;;;;;5031914;28;20500;-57
2022/03/19 00:04:49;;;;;;;20.20;5.35;;;8.10;99.90;;;;;;5030909;28;20049;-57
2022/03/19 00:07:19;;;;;;;;;;;8.10;99.90;;;;;;5030919;28;20033;-56
2022/03/19 00:09:47;;;;;;;24.50;4.65;;;8.00;99.90;;;;;;5028988;28;19928;-57
2022/03/19 00:12:15;;;;;;;18.92;6.10;;;8.00;99.90;;;;;;5013781;28;20049;-56
2022/03/19 00:14:44;;;;;;;17.60;5.65;;;7.90;99.90;;;;;;5030154;28;20053;-57
2022/03/19 00:17:11;;;;;;;17.83;5.13;;;7.90;99.90;;;;;;5030734;28;20041;-58
2022/03/19 00:19:40;;;;;;;21.08;5.32;;;7.90;99.90;;;;;;5031065;28;20049;-57
2022/03/19 00:22:08;;;;;;;17.17;5.10;;;7.80;99.90;;;;;;5013606;28;20061;-57
2022/03/19 00:24:37;;;;;;;17.17;5.40;;;7.80;99.90;;;;;;5022050;28;20072;-57
2022/03/19 00:27:05;;;;;;;17.17;4.95;;;7.80;99.90;;;;;;5029956;28;20041;-58
2022/03/19 00:29:32;;;;;;;15.50;5.05;;;7.70;99.90;;;;;;5029869;28;20045;-58
2022/03/19 00:32:00;;;;;;;10.63;4.47;;;7.70;99.90;;;;;;5030800;28;20053;-58
2022/03/19 00:34:28;;;;;;;18.20;5.63;;;7.70;99.90;;;;;;5030680;28;20029;-58
2022/03/19 00:36:56;;;;;;;12.55;5.65;;;7.70;99.90;;;;;;5024207;28;20058;-58
2022/03/19 00:39:23;;;;;;;20.48;5.72;;;7.70;99.90;;;;;;5026848;28;20061;-57
2022/03/19 00:41:54;;;;;;;13.18;5.70;;;7.60;99.90;;;;;;5025286;28;20045;-57
2022/03/19 00:44:22;;;;;;;12.73;5.07;;;7.60;99.90;;;;;;5025857;28;20050;-58
2022/03/19 00:46:51;;;;;;;26.27;5.78;;;7.60;99.90;;;;;;5030062;28;20473;-58
2022/03/19 00:49:19;;;;;;;17.17;5.22;;;7.60;99.90;;;;;;5029598;28;20053;-58
2022/03/19 00:51:46;;;;;;;19.20;6.35;;;7.50;99.90;;;;;;5030845;28;20053;-58
2022/03/19 00:54:15;;;;;;;16.38;4.93;;;7.50;99.90;;;;;;5013478;28;20045;-58
2022/03/19 00:56:43;;;;;;;18.33;5.68;;;7.50;99.90;;;;;;5025343;28;20049;-58
2022/03/19 00:59:11;;;;;;;20.75;5.18;;;7.50;99.90;;;;;;5027412;28;20052;-57
2022/03/19 01:01:39;;;;;;;16.77;5.07;;;7.50;99.90;;;;;;5027354;28;20617;-57
2022/03/19 01:04:07;;;;;;;21.23;6.22;;;7.50;99.90;;;;;;5027449;28;20037;-57
2022/03/19 01:06:34;;;;;;;15.90;5.32;;;7.40;99.90;;;;;;5027120;28;20041;-57
2022/03/19 01:09:02;;;;;;;16.70;5.35;;;7.40;99.90;;;;;;5018584;28;20073;-58
2022/03/19 01:11:30;;;;;;;22.40;5.57;;;7.40;99.90;;;;;;5027125;28;20045;-57
2022/03/19 01:13:58;;;;;;;18.65;4.72;;;7.40;99.90;;;;;;5022367;28;20528;-58
2022/03/19 01:16:26;;;;;;;16.10;4.78;;;7.30;99.90;;;;;;5027088;28;20508;-57
2022/03/19 01:18:54;;;;;;;17.50;5.50;;;7.30;99.90;;;;;;5026791;28;20050;-58
2022/03/19 01:21:21;;;;;;;16.75;5.28;;;7.30;99.90;;;;;;5026669;28;20119;-58
2022/03/19 01:23:49;;;;;;;18.63;5.28;;;7.30;99.90;;;;;;5026916;28;20389;-58
2022/03/19 01:26:18;;;;;;;19.38;5.25;;;7.30;99.90;;;;;;5010334;28;20068;-57
2022/03/19 01:28:46;;;;;;;21.92;5.25;;;7.30;99.90;;;;;;5020483;28;20046;-58
2022/03/19 01:31:15;;;;;;;18.88;5.35;;;7.30;99.90;;;;;;5026923;28;20044;-57
2022/03/19 01:33:43;;;;;;;21.38;4.20;;;7.30;99.90;;;;;;5010089;28;20057;-58
2022/03/19 01:36:11;;;;;;;14.30;4.22;;;7.20;99.90;;;;;;5026622;28;20045;-59
2022/03/19 01:38:39;;;;;;;20.00;4.88;;;7.20;99.90;;;;;;5025783;28;20045;-59
2022/03/19 01:41:07;;;;;;;14.27;4.50;;;7.30;99.90;;;;;;5026717;28;20060;-59
2022/03/19 01:43:37;;;;;;;16.17;4.22;;;7.30;99.90;;;;;;5022078;28;20041;-58
2022/03/19 01:46:07;;;;;;;18.60;5.65;;;7.20;99.90;;;;;;5026121;28;20068;-58
2022/03/19 01:48:35;;;;;;;16.63;4.30;;;7.20;99.90;;;;;;5026286;28;20041;-59
2022/03/19 01:51:02;;;;;;;15.20;5.05;;;7.20;99.90;;;;;;5026729;28;20045;-58
2022/03/19 01:53:30;;;;;;;19.75;4.38;;;7.10;99.90;;;;;;5008903;28;20045;-58
2022/03/19 01:55:59;;;;;;;18.95;4.57;;;7.10;99.90;;;;;;5016092;28;20067;-57
2022/03/19 01:58:27;;;;;;;19.58;5.13;;;7.10;99.90;;;;;;5010553;28;20486;-58
2022/03/19 02:00:56;;;;;;;16.75;4.57;;;7.20;99.90;;;;;;5025779;28;20053;-57
2022/03/19 02:03:27;;;;;;;15.00;4.10;;;7.10;99.90;;;;;;4997023;28;20052;-57
2022/03/19 02:05:57;;;;;;;17.08;4.25;;;7.20;99.90;;;;;;5026167;28;20049;-57
2022/03/19 02:08:25;;;;;;;17.42;4.47;;;7.10;99.90;;;;;;5020295;28;20044;-58
2022/03/19 02:10:53;;;;;;;22.30;4.95;;;7.10;99.90;;;;;;5026346;28;20050;-58
2022/03/19 02:13:20;;;;;;;13.50;4.57;;;7.10;99.90;;;;;;5024839;28;20052;-57
2022/03/19 02:15:48;;;;;;;18.83;4.35;;;7.10;99.90;;;;;;5025824;28;20053;-58
2022/03/19 02:18:16;;;;;;;13.20;4.10;;;7.10;99.90;;;;;;5026118;28;20068;-58
2022/03/19 02:20:43;;;;;;;20.08;5.75;;;7.10;99.90;;;;;;5025894;28;20060;-58
2022/03/19 02:26:07;;;;;;;16.08;4.32;;;7.10;99.90;;;;;;5025937;28;20053;-57
2022/03/19 02:28:35;;;;;;;19.20;4.10;;;7.10;99.90;;;;;;5022613;28;20057;-58
2022/03/19 02:31:03;;;;;;;12.30;3.60;;;7.10;99.90;;;;;;5021972;28;20219;-58
2022/03/19 02:33:31;;;;;;;12.80;3.47;;;7.00;99.90;;;;;;5024208;28;20049;-58
2022/03/19 02:35:58;;;;;;;9.98;3.30;;;7.00;99.90;;;;;;5027215;28;20053;-58
2022/03/19 02:38:26;;;;;;;17.65;4.18;;;7.00;99.90;;;;;;5026847;28;20057;-59
2022/03/19 02:40:54;;;;;;;12.98;3.97;;;7.00;99.90;;;;;;5008019;28;20053;-58
2022/03/19 02:43:21;;;;;;;15.38;3.78;;;7.00;99.90;;;;;;5018029;28;20041;-59
2022/03/19 02:45:49;;;;;;;10.85;3.70;;;7.00;99.90;;;;;;5024265;28;20489;-58
2022/03/19 02:48:16;;;;;;;23.13;5.35;;;7.00;99.90;;;;;;5026911;28;20033;-59
2022/03/19 02:50:44;;;;;;;14.48;3.50;;;7.00;99.90;;;;;;5026371;28;20057;-59
2022/03/19 02:53:12;;;;;;;15.07;3.72;;;7.00;99.90;;;;;;5026873;28;20045;-59
2022/03/19 02:55:41;;;;;;;22.27;4.43;;;7.00;99.90;;;;;;5009581;28;20519;-59
2022/03/19 02:58:10;;;;;;;18.75;3.47;;;7.00;99.90;;;;;;5027620;28;20046;-59
2022/03/19 03:00:38;;;;;;;14.55;4.25;;;7.00;99.90;;;;;;5030906;28;20049;-59
2022/03/19 03:03:07;;;;;;;8.90;3.70;;;7.00;99.90;;;;;;5030124;28;20037;-58
2022/03/19 03:05:35;;;;;;;23.23;5.28;;;7.00;99.90;;;;;;5022382;28;20053;-57
2022/03/19 03:08:04;;;;;;;13.65;3.10;;;7.00;99.90;;;;;;5006038;28;20559;-57
2022/03/19 03:10:33;;;;;;;19.30;3.50;;;7.00;99.90;;;;;;5031922;28;20049;-58
2022/03/19 03:13:01;;;;;;;20.30;4.30;;;7.00;99.90;;;;;;5031173;28;20042;-57
2022/03/19 03:15:29;;;;;;;18.08;3.45;;;7.00;99.90;;;;;;5030974;28;20029;-58
2022/03/19 03:17:58;;;;;;;17.77;6.68;;;7.00;99.90;;;;;;5031763;28;20053;-58
2022/03/19 03:20:26;;;;;;;9.80;3.75;;;7.00;99.90;;;;;;5011507;28;20478;-58
2022/03/19 03:22:53;;;;;;;17.30;4.43;;;7.00;99.90;;;;;;5030501;28;20493;-58
2022/03/19 03:25:21;;;;;;;17.08;3.90;;;7.00;99.90;;;;;;5031527;28;20053;-58
2022/03/19 03:27:51;;;;;;;16.65;3.60;;;7.00;99.90;;;;;;5031504;28;20064;-59
2022/03/19 03:30:20;;;;;;;22.27;3.83;;;7.00;99.90;;;;;;5030922;28;20057;-58
2022/03/19 03:32:49;;;;;;;12.35;3.60;;;7.00;99.90;;;;;;5031426;28;20480;-59
2022/03/19 03:35:16;;;;;;;15.30;4.60;;;7.00;99.90;;;;;;5017726;28;20057;-58
2022/03/19 03:37:44;;;;;;;20.08;3.80;;;7.00;99.90;;;;;;5030838;28;20041;-58
2022/03/19 03:40:12;;;;;;;25.27;6.28;;;6.90;99.90;;;;;;5030981;28;20046;-58
2022/03/19 03:42:41;;;;;;;15.43;4.00;;;7.00;99.90;;;;;;5031069;28;20049;-58
2022/03/19 03:45:10;;;;;;;10.00;4.13;;;6.90;99.90;;;;;;5027672;28;20057;-58
2022/03/19 03:47:38;;;;;;;17.13;4.30;;;6.90;99.90;;;;;;5030967;28;20041;-59
2022/03/19 03:50:06;;;;;;;12.50;4.13;;;6.90;99.90;;;;;;5031170;28;20050;-59
2022/03/19 03:52:33;;;;;;;14.82;4.38;;;6.90;99.90;;;;;;5030755;28;20037;-59
2022/03/19 03:55:03;;;;;;;14.25;4.45;;;6.90;99.90;;;;;;5030568;28;20060;-58
2022/03/19 03:57:31;;;;;;;14.73;5.75;;;6.80;99.90;;;;;;5024539;28;20543;-58
2022/03/19 03:59:59;;;;;;;14.98;4.53;;;6.80;99.90;;;;;;5030423;28;20042;-58
2022/03/19 04:02:27;;;;;;;15.98;4.47;;;6.80;99.90;;;;;;5030927;28;20056;-58
2022/03/19 04:04:55;;;;;;;20.83;5.18;;;6.80;99.90;;;;;;5030913;28;20041;-58
2022/03/19 04:07:23;;;;;;;19.30;6.15;;;6.80;99.90;;;;;;5030970;28;20050;-59
2022/03/19 04:09:51;;;;;;;20.40;4.38;;;6.80;99.90;;;;;;5030472;28;20037;-58
2022/03/19 04:12:19;;;;;;;11.93;5.35;;;6.80;99.90;;;;;;5031339;28;20060;-57
2022/03/19 04:14:46;;;;;;;14.05;4.95;;;6.70;99.90;;;;;;5030365;28;20578;-59
2022/03/19 04:17:14;;;;;;;13.27;5.03;;;6.70;99.90;;;;;;5030826;28;20052;-59
2022/03/19 04:19:42;;;;;;;17.23;4.82;;;6.70;99.90;;;;;;5030490;28;20053;-60
2022/03/19 04:22:10;;;;;;;15.18;5.18;;;6.70;99.90;;;;;;5030170;28;20041;-59
2022/03/19 04:24:38;;;;;;;22.25;6.50;;;6.70;99.90;;;;;;5030730;28;20045;-59
2022/03/19 04:27:07;;;;;;;16.15;5.07;;;6.70;99.90;;;;;;5030427;28;20404;-59
2022/03/19 04:29:35;;;;;;;26.73;5.85;;;6.70;99.90;;;;;;5030382;28;20584;-59
2022/03/19 04:32:03;;;;;;;15.00;4.47;;;6.60;99.90;;;;;;5033301;28;20045;-59
2022/03/19 04:34:30;;;;;;;15.52;4.65;;;6.60;99.90;;;;;;5034320;28;20492;-58
2022/03/19 04:36:58;;;;;;;13.95;4.97;;;6.60;99.90;;;;;;5034492;28;20056;-59
2022/03/19 04:39:26;;;;;;;13.50;4.30;;;6.60;99.90;;;;;;5034674;28;20053;-58
2022/03/19 04:41:54;;;;;;;17.90;4.65;;;6.60;99.90;;;;;;5034868;28;20417;-59
2022/03/19 04:44:22;;;;;;;20.02;5.40;;;6.60;99.90;;;;;;5034687;28;20504;-59
2022/03/19 04:46:50;;;;;;;24.33;5.63;;;6.60;99.90;;;;;;5034611;28;20050;-59
2022/03/19 04:49:18;;;;;;;18.52;5.03;;;6.60;99.90;;;;;;5034422;28;20053;-58
2022/03/19 04:51:48;;;;;;;22.58;5.50;;;6.60;99.90;;;;;;5033786;28;20048;-58
2022/03/19 04:54:17;;;;;;;16.67;4.95;;;6.60;99.90;;;;;;5033387;28;20052;-58
2022/03/19 04:56:44;;;;;;;24.75;5.40;;;6.60;99.90;;;;;;5032638;28;20048;-58
2022/03/19 04:59:15;;;;;;;20.67;5.18;;;6.60;99.90;;;;;;5032999;28;20064;-58
2022/03/19 05:01:43;;;;;;;19.15;5.45;;;6.60;99.90;;;;;;5033732;28;20049;-58
2022/03/19 05:04:11;;;;;;;16.90;5.68;;;6.70;99.90;;;;;;5033688;28;20056;-58
2022/03/19 05:06:39;;;;;;;22.02;6.30;;;6.60;99.90;;;;;;5032969;28;20049;-57
2022/03/19 05:11:52;;;;;;;18.98;6.50;;;6.60;99.90;;;;;;5033554;28;20488;-58
2022/03/19 05:14:20;;;;;;;15.85;6.00;;;6.60;99.90;;;;;;5032985;28;20049;-58
2022/03/19 05:16:48;;;;;;;19.80;6.97;;;6.60;99.90;;;;;;5033338;28;20524;-58
2022/03/19 05:19:15;;;;;;;26.65;7.13;;;6.60;99.90;;;;;;5033592;28;20390;-57
2022/03/19 05:21:43;;;;;;;20.85;6.32;;;6.60;99.90;;;;;;5033176;28;20493;-58
2022/03/19 05:24:10;;;;;;;17.65;6.43;;;6.60;99.90;;;;;;5032591;28;20041;-58
2022/03/19 05:26:38;;;;;;;17.75;6.25;;;6.60;99.90;;;;;;5032965;28;20049;-58
2022/03/19 05:29:06;;;;;;;19.70;5.97;;;6.60;99.90;;;;;;5033117;28;20046;-57
2022/03/19 05:31:39;;;;;;;29.40;7.63;;;6.60;99.90;;;;;;5033243;28;20060;-58
2022/03/19 05:37:11;;;;;;;23.60;6.72;;;6.50;99.90;;;;;;4971457;28;20059;-57
2022/03/19 05:39:39;;;;;;;18.38;6.00;;;6.50;99.90;;;;;;5021340;28;20057;-58
2022/03/19 05:42:07;;;;;;;15.27;6.05;;;6.50;99.90;;;;;;5032359;28;20049;-58
2022/03/19 05:44:34;;;;;;;25.00;6.88;;;6.50;99.90;;;;;;5029867;28;20500;-59
2022/03/19 05:47:02;;;;;;;19.70;7.28;;;6.50;99.90;;;;;;5030878;28;20046;-58
2022/03/19 05:49:30;;;;;;;20.17;6.75;;;6.50;99.90;;;;;;5010837;28;20428;-58
2022/03/19 05:51:58;;;;;;;18.23;6.15;;;6.50;99.90;;;;;;5011746;28;20060;-58
2022/03/19 05:54:26;;;;;;;21.45;7.60;;;6.50;99.90;;;;;;4993752;28;20401;-58
2022/03/19 05:56:54;;;;;;;19.75;7.05;;;6.50;99.90;;;;;;5010312;28;20049;-58
2022/03/19 05:59:22;;;;;;;17.75;7.55;;;6.50;99.90;;;;;;5020566;28;20053;-58
2022/03/19 06:01:49;;;;;;;21.85;6.38;;;6.50;99.90;;;;;;4994726;28;20057;-58
2022/03/19 06:04:18;;;;;;;19.73;6.43;;;6.40;99.90;;;;;;5007715;28;20057;-59
2022/03/19 06:06:47;;;;;;;20.58;6.80;;;6.40;99.90;;;;;;5026256;28;20624;-59
2022/03/19 06:09:15;;;;;;;23.63;7.53;;;6.40;99.90;;;;;;5014041;28;20042;-58
2022/03/19 06:11:44;;;;;;;24.52;8.02;;;6.40;99.90;;;;;;5029131;28;20397;-59
2022/03/19 06:14:12;;;;;;;20.37;7.13;;;6.40;99.90;;;;;;5029108;28;20428;-58
2022/03/19 06:16:40;;;;;;;18.83;7.32;;;6.40;99.90;;;;;;5028191;28;20782;-59
2022/03/19 06:19:07;;;;;;;20.15;6.90;;;6.40;99.90;;;;;;5018692;28;20627;-58
2022/03/19 06:21:35;;;;;;;17.10;7.22;;;6.40;99.90;;;;;;5025472;28;20049;-58
2022/03/19 06:24:05;;;;;;;22.75;7.53;;;6.40;99.90;;;;;;5025601;28;20053;-59
2022/03/19 06:26:34;;;;;;;22.15;7.28;;;6.40;99.90;;;;;;5019458;28;20042;-59
2022/03/19 06:29:02;;;;;;;22.98;6.63;;;6.40;99.90;;;;;;5011193;28;20057;-59
2022/03/19 06:31:29;;;;;;;24.00;7.68;;;6.40;99.90;;;;;;5011126;28;20037;-60
2022/03/19 06:33:57;;;;;;;22.77;8.35;;;6.40;99.90;;;;;;5024629;28;20037;-58
2022/03/19 06:39:12;;;;;;;22.83;8.52;;;6.40;99.90;;;;;;5021929;28;20046;-59
2022/03/19 06:41:39;;;;;;;23.60;8.38;;;6.40;99.90;;;;;;4991818;28;20057;-58
2022/03/19 06:44:07;;;;;;;51.63;10.43;;;6.40;99.90;;;;;;5024089;28;20069;-57
2022/03/19 06:46:35;;;;;;;25.67;8.57;;;6.40;99.90;;;;;;5027993;28;20054;-57
2022/03/19 06:49:03;;;;;;;15.32;7.88;;;6.50;99.90;;;;;;5020828;28;20049;-59
2022/03/19 06:51:30;;;;;;;19.00;8.32;;;6.50;99.90;;;;;;5026146;28;20050;-59
2022/03/19 06:53:58;;;;;;;26.80;7.65;;;6.50;99.90;;;;;;5023834;28;20050;-58
2022/03/19 06:56:26;;;;;;;21.40;8.40;;;6.50;99.90;;;;;;5025373;28;20049;-58
2022/03/19 06:58:56;;;;;;;19.05;7.32;;;6.50;99.90;;;;;;5017479;28;20436;-58
2022/03/19 07:01:24;;;;;;;21.42;7.63;;;6.60;99.90;;;;;;5026368;28;20391;-59
2022/03/19 07:03:52;;;;;;;20.83;7.65;;;6.60;99.90;;;;;;5018814;28;20057;-59
2022/03/19 07:06:20;;;;;;;17.42;7.45;;;6.70;99.90;;;;;;5020782;28;20045;-59
2022/03/19 07:09:08;;;;;;;17.98;7.57;;;6.60;99.90;;;;;;5027931;28;20037;-59
2022/03/19 07:11:36;;;;;;;20.42;8.10;;;6.80;99.90;;;;;;5027461;28;20121;-59
2022/03/19 07:14:05;;;;;;;22.13;8.27;;;6.80;99.90;;;;;;5027809;28;20049;-59
2022/03/19 07:16:33;;;;;;;16.77;7.87;;;6.90;99.90;;;;;;5027046;28;20047;-59
2022/03/19 07:19:01;;;;;;;16.27;7.85;;;7.00;99.90;;;;;;5022436;28;20044;-58
2022/03/19 07:21:29;;;;;;;14.43;7.40;;;7.00;99.90;;;;;;5027882;28;20049;-59
2022/03/19 07:23:56;;;;;;;17.52;7.30;;;7.10;99.90;;;;;;5027708;28;20145;-59
2022/03/19 07:26:26;;;;;;;18.90;7.55;;;7.20;99.90;;;;;;5028082;28;20211;-59
2022/03/19 07:28:54;;;;;;;18.02;8.98;;;7.20;99.90;;;;;;5006783;28;20053;-57
2022/03/19 07:31:21;;;;;;;20.58;7.35;;;7.30;99.90;;;;;;5007860;28;20042;-58
2022/03/19 07:33:50;;;;;;;23.55;7.65;;;7.30;99.90;;;;;;5001505;28;20046;-58
2022/03/19 07:36:19;;;;;;;21.45;8.38;;;7.40;99.90;;;;;;4998708;28;20046;-58
2022/03/19 07:38:47;;;;;;;19.50;7.85;;;7.50;99.90;;;;;;5007885;28;20046;-58
2022/03/19 07:44:03;;;;;;;14.07;5.97;;;7.60;99.90;;;;;;4999221;28;20054;-58
2022/03/19 07:46:31;;;;;;;16.50;7.68;;;7.60;99.90;;;;;;5000462;28;20045;-58
2022/03/19 07:48:59;;;;;;;27.83;7.40;;;7.70;99.90;;;;;;4998880;28;20051;-57
2022/03/19 07:51:28;;;;;;;13.10;5.97;;;7.80;99.90;;;;;;5006476;28;20046;-58
2022/03/19 07:53:57;;;;;;;18.73;6.40;;;7.80;99.90;;;;;;5006663;28;20050;-57
2022/03/19 07:56:25;;;;;;;18.33;6.88;;;7.90;99.90;;;;;;5007621;28;20393;-58
2022/03/19 07:58:52;;;;;;;23.58;6.75;;;7.90;99.90;;;;;;4997418;28;20039;-57
2022/03/19 08:01:20;;;;;;;26.90;8.23;;;8.00;99.90;;;;;;4988565;28;20146;-57
2022/03/19 08:03:49;;;;;;;17.67;6.75;;;8.00;99.90;;;;;;4997810;28;20053;-57
2022/03/19 08:06:16;;;;;;;18.95;7.10;;;8.00;99.90;;;;;;4989640;28;20054;-58
2022/03/19 08:08:44;;;;;;;22.08;6.80;;;8.10;99.90;;;;;;5006236;28;20409;-58
2022/03/19 08:11:14;;;;;;;22.25;6.40;;;8.10;99.90;;;;;;5009736;28;20052;-57
2022/03/19 08:13:42;;;;;;;13.73;5.78;;;8.20;99.90;;;;;;5003778;28;20065;-58
2022/03/19 08:16:09;;;;;;;16.00;7.72;;;8.30;99.90;;;;;;4994081;28;20050;-58
2022/03/19 08:18:37;;;;;;;22.05;6.45;;;8.30;99.90;;;;;;5002017;28;20490;-57
2022/03/19 08:21:05;;;;;;;15.70;6.93;;;8.30;99.90;;;;;;4997823;28;20042;-58
2022/03/19 08:23:35;;;;;;;19.45;5.95;;;8.40;99.90;;;;;;5010919;28;20054;-58
2022/03/19 08:26:02;;;;;;;14.75;5.60;;;8.40;99.90;;;;;;5012048;28;20046;-57
2022/03/19 08:28:30;;;;;;;17.95;6.70;;;8.50;99.90;;;;;;5014221;28;20052;-57
2022/03/19 08:30:58;;;;;;;11.73;5.72;;;8.50;99.90;;;;;;5031574;28;20045;-58
2022/03/19 08:33:26;;;;;;;17.88;6.63;;;8.50;99.90;;;;;;5031250;28;20049;-57
2022/03/19 08:35:54;;;;;;;17.33;6.40;;;8.60;99.90;;;;;;5026629;28;20064;-59
2022/03/19 08:41:09;;;;;;;21.88;7.35;;;8.70;99.90;;;;;;5024515;28;20532;-58
2022/03/19 08:43:37;;;;;;;12.52;6.40;;;8.80;99.90;;;;;;5027597;28;20049;-58
2022/03/19 08:46:05;;;;;;;20.95;7.07;;;8.80;99.90;;;;;;5024050;28;20052;-58
2022/03/19 08:48:34;;;;;;;14.10;6.13;;;8.90;99.90;;;;;;5024198;28;20094;-57
2022/03/19 08:53:49;;;;;;;20.45;7.20;;;9.00;99.90;;;;;;5029978;28;20045;-57
2022/03/19 08:56:17;;;;;;;18.33;7.25;;;9.00;99.90;;;;;;5030388;28;20041;-57
2022/03/19 08:58:45;;;;;;;15.43;6.28;;;9.10;99.90;;;;;;5028022;28;20060;-57
2022/03/19 09:01:13;;;;;;;13.52;5.35;;;9.10;99.90;;;;;;5026865;28;20045;-57
2022/03/19 09:03:41;;;;;;;10.88;6.10;;;9.20;99.90;;;;;;5026628;28;20404;-57
2022/03/19 09:06:13;;;;;;;15.20;5.65;;;9.20;99.90;;;;;;5008375;28;20042;-56
2022/03/19 09:08:45;;;;;;;20.42;6.00;;;9.30;99.90;;;;;;5029051;28;20053;-57
2022/03/19 09:11:13;;;;;;;16.25;6.18;;;9.40;99.90;;;;;;5030043;28;20037;-57
2022/03/19 09:13:40;;;;;;;21.85;6.43;;;9.50;99.90;;;;;;5028363;28;20061;-56
2022/03/19 09:16:08;;;;;;;12.98;4.97;;;9.50;99.90;;;;;;5023530;28;20517;-57
2022/03/19 09:18:36;;;;;;;13.80;5.72;;;9.60;99.90;;;;;;5027743;28;20045;-58
2022/03/19 09:21:04;;;;;;;12.05;5.32;;;9.60;99.90;;;;;;5009498;28;20046;-58
2022/03/19 09:23:32;;;;;;;17.52;6.22;;;9.80;99.90;;;;;;5022995;28;20049;-57
2022/03/19 09:25:59;;;;;;;15.43;5.60;;;9.80;99.90;;;;;;5026537;28;20037;-58
2022/03/19 09:28:27;;;;;;;20.60;5.90;;;9.90;99.90;;;;;;5029045;28;20053;-57
2022/03/19 09:30:55;;;;;;;14.35;5.20;;;10.00;99.90;;;;;;5029785;28;20053;-59
2022/03/19 09:33:24;;;;;;;14.70;5.38;;;10.00;99.90;;;;;;5029527;28;20057;-56
2022/03/19 09:35:52;;;;;;;13.82;4.95;;;10.10;99.90;;;;;;5019019;28;20517;-57
2022/03/19 09:38:19;;;;;;;14.63;5.20;;;10.20;99.90;;;;;;5029574;28;20053;-57
2022/03/19 09:40:47;;;;;;;14.77;5.60;;;10.20;99.90;;;;;;5015750;28;20045;-58
2022/03/19 09:43:15;;;;;;;13.43;5.85;;;10.30;99.90;;;;;;5029928;28;20053;-58
2022/03/19 09:45:44;;;;;;;15.90;4.53;;;10.40;99.90;;;;;;5028046;28;20052;-58
2022/03/19 09:48:12;;;;;;;11.50;5.13;;;10.50;99.90;;;;;;5019562;28;20056;-57
2022/03/19 09:50:39;;;;;;;11.57;4.55;;;10.70;99.90;;;;;;5028568;28;20052;-58
2022/03/19 09:53:09;;;;;;;14.88;5.03;;;10.80;99.90;;;;;;5029772;28;20401;-58
2022/03/19 09:55:38;;;;;;;19.42;5.30;;;10.80;99.90;;;;;;5028214;28;20044;-59
2022/03/19 09:58:06;;;;;;;15.07;4.57;;;10.90;99.90;;;;;;5019154;28;20037;-57
2022/03/19 10:00:36;;;;;;;13.43;4.15;;;11.00;99.90;;;;;;5014230;28;20045;-57
2022/03/19 10:03:11;;;;;;;9.65;5.75;;;11.10;99.90;;;;;;5011552;28;20041;-57
2022/03/19 10:08:37;;;;;;;11.77;4.72;;;11.20;99.90;;;;;;5025855;28;20053;-57
2022/03/19 10:11:12;;;;;;;13.73;3.97;;;11.30;99.90;;;;;;5026523;28;20489;-57
2022/03/19 10:13:46;;;;;;;13.35;4.45;;;11.40;99.90;;;;;;5025987;28;20072;-58
2022/03/19 10:16:23;;;;;;;14.00;5.05;;;11.40;99.90;;;;;;5028312;28;20054;-58
2022/03/19 10:19:02;;;;;;;10.85;3.88;;;11.50;99.90;;;;;;5011642;28;20512;-58
2022/03/19 10:21:36;;;;;;;12.50;4.07;;;11.60;99.90;;;;;;5028591;28;20057;-57
2022/03/19 10:24:07;;;;;;;9.63;4.35;;;11.70;99.90;;;;;;5027628;28;20045;-57
2022/03/19 10:26:37;;;;;;;13.35;4.32;;;11.80;99.90;;;;;;5027373;28;20049;-58
2022/03/19 10:29:07;;;;;;;11.75;4.22;;;11.80;99.90;;;;;;5026324;28;20433;-58
2022/03/19 10:31:39;;;;;;;14.27;4.40;;;11.90;99.90;;;;;;5024478;28;20056;-58
2022/03/19 10:34:08;;;;;;;14.18;4.95;;;11.90;99.90;;;;;;5021702;28;20045;-56
2022/03/19 10:36:38;;;;;;;13.10;4.55;;;12.00;99.90;;;;;;5027678;28;20049;-57
2022/03/19 10:39:27;;;;;;;7.93;4.05;;;12.10;99.90;;;;;;5011693;28;20441;-58
2022/03/19 10:41:57;;;;;;;15.27;4.80;;;12.10;99.90;;;;;;5011170;28;20049;-57
2022/03/19 10:44:27;;;;;;;12.18;4.80;;;12.20;99.90;;;;;;5026497;28;20049;-58
2022/03/19 10:46:58;;;;;;;13.63;4.82;;;12.30;99.90;;;;;;5027878;28;20037;-57
2022/03/19 10:49:30;;;;;;;10.75;3.80;;;12.30;99.90;;;;;;5019297;28;20053;-57
2022/03/19 10:52:02;;;;;;;15.23;4.22;;;12.30;99.70;;;;;;5022516;28;20041;-58
2022/03/19 10:54:31;;;;;;;10.85;3.53;;;12.40;99.00;;;;;;5026896;28;20052;-58
2022/03/19 10:57:00;;;;;;;9.70;4.25;;;12.40;98.60;;;;;;5024339;28;20049;-57
2022/03/19 10:59:31;;;;;;;12.95;4.10;;;12.40;99.60;;;;;;5022442;28;20050;-58
2022/03/19 11:02:00;;;;;;;;;;;12.40;99.90;;;;;;5025773;28;20497;-57
2022/03/19 11:04:30;;;;;;;15.87;4.40;;;12.50;99.90;;;;;;5022056;28;19921;-58
2022/03/19 11:07:02;;;;;;;13.98;4.55;;;12.60;99.90;;;;;;5027073;28;20061;-57
2022/03/19 11:09:32;;;;;;;12.48;4.18;;;12.60;99.70;;;;;;5026880;28;20053;-58
2022/03/19 11:12:03;;;;;;;9.55;4.32;;;12.70;98.70;;;;;;5001225;28;20053;-57
2022/03/19 11:14:31;;;;;;;12.00;3.67;;;12.90;97.60;;;;;;5023084;28;20056;-57
2022/03/19 11:17:24;;;;;;;9.15;4.13;;;13.00;96.30;;;;;;5025491;28;20042;-58
2022/03/19 11:19:55;;;;;;;11.45;4.20;;;13.00;96.40;;;;;;5023548;28;20049;-58
2022/03/19 11:22:23;;;;;;;12.63;4.00;;;13.00;96.30;;;;;;5007072;28;20058;-58
2022/03/19 11:25:07;;;;;;;15.95;4.20;;;13.10;95.60;;;;;;5025991;28;20056;-58
2022/03/19 11:27:44;;;;;;;9.98;3.05;;;13.20;96.40;;;;;;5023393;28;20473;-58
2022/03/19 11:30:16;;;;;;;10.55;3.50;;;13.30;94.90;;;;;;5021796;28;20049;-58
2022/03/19 11:33:19;;;;;;;11.98;3.60;;;13.50;91.80;;;;;;5026250;28;20429;-58
2022/03/19 11:36:03;;;;;;;9.85;4.07;;;13.60;92.00;;;;;;5026584;28;20418;-58
2022/03/19 11:38:32;;;;;;;10.27;3.13;;;13.80;90.20;;;;;;5027743;28;20053;-59
2022/03/19 11:41:15;;;;;;;11.60;3.70;;;14.00;85.80;;;;;;5027761;28;20046;-58
2022/03/19 11:43:43;;;;;;;6.78;2.55;;;14.20;86.40;;;;;;5022709;28;20049;-59
2022/03/19 11:46:12;;;;;;;9.85;2.97;;;14.40;80.70;;;;;;5024868;28;20053;-58
2022/03/19 11:48:50;;;;;;;7.88;3.08;;;14.60;79.40;;;;;;5023261;28;20048;-58
2022/03/19 11:51:18;;;;;;;11.70;3.70;;;14.70;77.10;;;;;;5025076;28;20052;-57
2022/03/19 11:54:16;;;;;;;10.43;3.42;;;14.80;76.20;;;;;;5028095;28;20057;-58
2022/03/19 11:56:47;;;;;;;11.02;3.22;;;15.00;76.20;;;;;;5020108;28;20060;-58
2022/03/19 11:59:21;;;;;;;6.85;3.17;;;15.10;76.80;;;;;;5027324;28;20068;-58
2022/03/19 12:01:58;;;;;;;7.45;2.92;;;15.30;74.10;;;;;;5025807;28;20413;-58
2022/03/19 12:04:51;;;;;;;8.18;3.22;;;15.50;73.50;;;;;;5027712;28;20038;-57
2022/03/19 12:07:40;;;;;;;9.68;3.10;;;15.70;70.50;;;;;;5027978;28;20044;-58
2022/03/19 12:10:12;;;;;;;8.77;3.75;;;15.80;70.00;;;;;;5027658;28;20056;-58
2022/03/19 12:12:44;;;;;;;7.40;3.20;;;15.80;69.50;;;;;;5025649;28;20041;-58
2022/03/19 12:15:33;;;;;;;10.98;3.03;;;15.90;68.90;;;;;;5026504;28;20041;-59
2022/03/19 12:18:32;;;;;;;10.27;3.50;;;16.00;68.40;;;;;;5026876;28;20049;-57
2022/03/19 12:21:03;;;;;;;9.10;3.03;;;16.20;67.50;;;;;;5027148;28;20041;-58
2022/03/19 12:23:40;;;;;;;9.73;2.80;;;16.40;67.50;;;;;;5020938;28;20492;-58
2022/03/19 12:26:10;;;;;;;9.25;3.05;;;16.60;66.30;;;;;;5027373;28;20045;-59
2022/03/19 12:28:39;;;;;;;9.80;3.85;;;16.80;66.50;;;;;;5023299;28;20492;-60
2022/03/19 12:31:11;;;;;;;6.68;3.20;;;16.80;65.90;;;;;;5027132;28;20052;-59
2022/03/19 12:33:43;;;;;;;10.38;3.42;;;16.90;66.80;;;;;;5025634;28;20049;-59
2022/03/19 12:36:19;;;;;;;6.55;2.90;;;17.10;64.00;;;;;;5010194;28;20044;-59
2022/03/19 12:38:48;;;;;;;8.98;3.42;;;17.40;65.00;;;;;;5026657;28;20049;-59
2022/03/19 12:41:24;;;;;;;12.23;3.58;;;17.50;63.00;;;;;;5010193;28;20064;-60
2022/03/19 12:43:52;;;;;;;5.03;2.40;;;17.60;62.60;;;;;;5024081;28;20523;-59
2022/03/19 12:46:28;;;;;;;7.68;2.92;;;17.70;62.60;;;;;;5027209;28;20046;-59
2022/03/19 12:49:07;;;;;;;9.60;3.28;;;17.80;63.30;;;;;;5026158;28;20053;-60
2022/03/19 12:51:39;;;;;;;12.32;3.30;;;17.90;62.50;;;;;;5027222;28;20041;-59
2022/03/19 12:54:17;;;;;;;8.95;2.90;;;18.10;63.00;;;;;;5013563;28;20046;-59
2022/03/19 12:56:47;;;;;;;8.60;2.70;;;18.40;61.40;;;;;;5013339;28;20049;-59
2022/03/19 12:59:26;;;;;;;7.90;3.45;;;18.40;60.90;;;;;;5028984;28;20037;-59
2022/03/19 13:01:55;;;;;;;8.13;3.50;;;18.40;60.40;;;;;;5030145;28;20049;-60
2022/03/19 13:04:28;;;;;;;8.23;3.28;;;18.30;61.10;;;;;;5026813;28;20045;-59
2022/03/19 13:06:58;;;;;;;8.80;3.03;;;18.40;61.20;;;;;;5030094;28;20416;-60
2022/03/19 13:09:32;;;;;;;17.17;3.30;;;18.50;60.40;;;;;;5029621;28;20050;-59
2022/03/19 13:12:03;;;;;;;8.88;3.08;;;18.60;61.00;;;;;;5029873;28;20045;-58
2022/03/19 13:14:32;;;;;;;10.20;2.88;;;18.70;60.10;;;;;;5027350;28;20060;-59
2022/03/19 13:17:00;;;;;;;9.30;3.28;;;18.70;59.80;;;;;;5029745;28;20056;-59
2022/03/19 13:19:32;;;;;;;7.10;2.92;;;18.70;59.60;;;;;;5020105;28;20061;-59
2022/03/19 13:22:02;;;;;;;9.80;2.60;;;18.70;59.80;;;;;;5028504;28;20064;-59